createdAt,value
2018-04-28T00:00:46.551Z,100366.59
2018-04-28T00:03:14.672Z,100361.50
2018-04-28T00:05:42.793Z,100363.11
2018-04-28T00:08:10.941Z,100368.45
2018-04-28T00:10:39.043Z,100378.43
2018-04-28T00:13:07.160Z,100381.42
2018-04-28T00:15:35.304Z,100379.53
2018-04-28T00:18:03.415Z,100387.69
2018-04-28T00:20:31.554Z,100391.52
2018-04-28T00:23:05.199Z,100387.46
2018-04-28T00:25:43.236Z,100385.34
2018-04-28T00:28:26.933Z,100388.40
2018-04-28T00:31:17.436Z,100389.38
2018-04-28T00:33:46.177Z,100388.27
2018-04-28T00:36:14.279Z,100385.39
2018-04-28T00:38:46.993Z,100386.80
2018-04-28T00:41:15.234Z,100381.38
2018-04-28T00:43:43.342Z,100383.98
2018-04-28T00:46:28.126Z,100384.94
2018-04-28T00:49:01.073Z,100387.25
2018-04-28T00:51:31.715Z,100385.31
2018-04-28T00:54:07.613Z,100382.84
2018-04-28T00:56:35.751Z,100384.45
2018-04-28T00:59:20.584Z,100389.98
2018-04-28T01:01:53.791Z,100387.97
2018-04-28T01:04:32.317Z,100391.20
2018-04-28T01:07:00.589Z,100392.48
2018-04-28T01:09:28.720Z,100388.28
2018-04-28T01:11:56.854Z,100399.67
2018-04-28T01:14:36.939Z,100395.83
2018-04-28T01:20:09.485Z,100400.95
2018-04-28T01:22:41.008Z,100406.49
2018-04-28T01:25:11.968Z,100407.40
2018-04-28T01:27:48.957Z,100413.42
2018-04-28T01:30:26.676Z,100408.59
2018-04-28T01:32:59.371Z,100414.64
2018-04-28T01:35:39.630Z,100424.25
2018-04-28T01:38:07.754Z,100434.20
2018-04-28T01:40:38.358Z,100428.92
2018-04-28T01:43:24.080Z,100424.97
2018-04-28T01:45:53.823Z,100431.64
2018-04-28T01:48:25.422Z,100433.55
2018-04-28T01:50:58.224Z,100440.94
2018-04-28T01:53:26.981Z,100431.44
2018-04-28T01:56:11.886Z,100431.28
2018-04-28T01:58:48.531Z,100432.38
2018-04-28T02:01:22.300Z,100438.16
2018-04-28T02:03:56.405Z,100442.37
2018-04-28T02:06:30.248Z,100441.11
2018-04-28T02:09:01.922Z,100439.52
2018-04-28T02:11:35.831Z,100445.10
2018-04-28T02:14:03.963Z,100444.70
2018-04-28T02:16:32.668Z,100441.27
2018-04-28T02:19:08.530Z,100447.25
2018-04-28T02:24:49.634Z,100458.94
2018-04-28T02:27:26.039Z,100462.03
2018-04-28T02:30:09.784Z,100465.17
2018-04-28T02:32:39.624Z,100468.38
2018-04-28T02:38:16.360Z,100467.41
2018-04-28T02:40:55.034Z,100467.20
2018-04-28T02:43:23.145Z,100471.20
2018-04-28T02:46:06.177Z,100474.50
2018-04-28T02:51:37.883Z,100471.47
2018-04-28T02:54:07.690Z,100473.03
2018-04-28T02:59:48.903Z,100470.53
2018-04-28T03:02:23.618Z,100481.80
2018-04-28T03:08:10.295Z,100476.98
2018-04-28T03:10:39.120Z,100481.23
2018-04-28T03:13:14.680Z,100479.02
2018-04-28T03:15:42.845Z,100484.79
2018-04-28T03:18:11.010Z,100485.61
2018-04-28T03:20:41.783Z,100482.50
2018-04-28T03:26:27.652Z,100478.23
2018-04-28T03:29:04.319Z,100478.39
2018-04-28T03:31:44.172Z,100475.33
2018-04-28T03:37:35.099Z,100474.13
2018-04-28T03:43:25.245Z,100488.88
2018-04-28T03:49:01.116Z,100483.66
2018-04-28T03:51:30.035Z,100478.66
2018-04-28T03:54:05.705Z,100483.44
2018-04-28T03:56:37.326Z,100481.30
2018-04-28T03:59:17.436Z,100485.09
2018-04-28T04:04:54.672Z,100489.72
2018-04-28T04:07:36.717Z,100490.51
2018-04-28T04:10:09.399Z,100490.45
2018-04-28T04:12:47.256Z,100496.84
2018-04-28T04:18:22.964Z,100502.23
2018-04-28T04:20:55.847Z,100507.17
2018-04-28T04:23:32.963Z,100503.95
2018-04-28T04:26:08.840Z,100506.70
2018-04-28T04:31:50.744Z,100509.27
2018-04-28T04:37:47.284Z,100512.94
2018-04-28T04:40:39.022Z,100517.16
2018-04-28T04:43:13.796Z,100516.87
2018-04-28T04:45:48.419Z,100519.34
2018-04-28T04:48:19.317Z,100534.11
2018-04-28T04:50:59.196Z,100529.50
2018-04-28T04:53:32.182Z,100535.59
2018-04-28T04:59:13.290Z,100545.07
2018-04-28T05:01:57.122Z,100539.89
2018-04-28T05:04:27.970Z,100544.34
2018-04-28T05:07:00.118Z,100544.19
2018-04-28T05:12:45.435Z,100551.30
2018-04-28T05:18:28.141Z,100556.59
2018-04-28T05:21:08.096Z,100560.58
2018-04-28T05:23:43.927Z,100558.51
2018-04-28T05:29:18.610Z,100567.64
2018-04-28T05:31:53.423Z,100573.19
2018-04-28T05:40:48.982Z,100573.14
2018-04-28T05:43:23.786Z,100581.73
2018-04-28T05:46:03.583Z,100585.44
2018-04-28T05:48:37.352Z,100593.48
2018-04-28T05:51:26.093Z,100592.66
2018-04-28T05:54:00.155Z,100586.80
2018-04-28T05:59:58.760Z,100603.85
2018-04-28T06:02:34.543Z,100604.60
2018-04-28T06:05:09.502Z,100599.42
2018-04-28T06:07:44.285Z,100606.12
2018-04-28T06:13:48.887Z,100614.91
2018-04-28T06:19:47.661Z,100619.62
2018-04-28T06:22:15.903Z,100617.84
2018-04-28T06:24:44.030Z,100612.83
2018-04-28T06:27:12.168Z,100613.91
2018-04-28T06:29:40.301Z,100619.33
2018-04-28T06:32:08.567Z,100613.52
2018-04-28T06:34:36.694Z,100615.73
2018-04-28T06:37:04.849Z,100615.69
2018-04-28T06:39:32.962Z,100622.39
2018-04-28T06:42:01.097Z,100629.31
2018-04-28T06:44:29.233Z,100623.23
2018-04-28T06:46:57.344Z,100629.36
2018-04-28T06:49:25.477Z,100633.53
2018-04-28T06:51:53.600Z,100644.31
2018-04-28T06:54:21.727Z,100639.77
2018-04-28T06:56:49.846Z,100642.12
2018-04-28T06:59:17.991Z,100642.73
2018-04-28T07:01:46.122Z,100647.96
2018-04-28T07:04:14.223Z,100653.00
2018-04-28T07:06:42.375Z,100653.98
2018-04-28T07:09:10.512Z,100652.42
2018-04-28T07:11:39.558Z,100652.42
2018-04-28T07:14:07.721Z,100647.99
2018-04-28T07:16:35.853Z,100653.20
2018-04-28T07:19:03.979Z,100655.94
2018-04-28T07:21:32.106Z,100657.64
2018-04-28T07:24:00.223Z,100659.78
2018-04-28T07:26:28.373Z,100654.15
2018-04-28T07:28:56.506Z,100656.30
2018-04-28T07:31:24.631Z,100660.71
2018-04-28T07:33:52.754Z,100668.34
2018-04-28T07:36:21.035Z,100667.66
2018-04-28T07:38:49.179Z,100666.17
2018-04-28T07:41:17.288Z,100668.66
2018-04-28T07:43:45.434Z,100661.97
2018-04-28T07:46:13.563Z,100668.31
2018-04-28T07:48:41.676Z,100661.70
2018-04-28T07:51:10.070Z,100669.65
2018-04-28T07:53:38.201Z,100671.34
2018-04-28T07:56:06.452Z,100673.58
2018-04-28T07:58:34.575Z,100674.78
2018-04-28T08:01:02.687Z,100669.02
2018-04-28T08:03:30.888Z,100672.33
2018-04-28T08:05:59.040Z,100675.39
2018-04-28T08:08:27.208Z,100681.20
2018-04-28T08:10:55.324Z,100685.58
2018-04-28T08:13:23.515Z,100681.41
2018-04-28T08:15:51.624Z,100683.69
2018-04-28T08:18:19.743Z,100684.70
2018-04-28T08:20:47.945Z,100683.00
2018-04-28T08:23:16.306Z,100685.77
2018-04-28T08:25:44.415Z,100687.31
2018-04-28T08:28:12.731Z,100689.10
2018-04-28T08:30:40.845Z,100688.59
2018-04-28T08:33:12.097Z,100692.23
2018-04-28T08:35:40.230Z,100680.73
2018-04-28T08:38:08.362Z,100687.23
2018-04-28T08:40:36.497Z,100685.96
2018-04-28T08:43:04.615Z,100691.10
2018-04-28T08:45:32.784Z,100686.56
2018-04-28T08:48:00.936Z,100682.51
2018-04-28T08:50:29.065Z,100685.64
2018-04-28T08:52:57.300Z,100687.98
2018-04-28T08:55:25.430Z,100690.73
2018-04-28T08:57:53.565Z,100685.09
2018-04-28T09:00:29.600Z,100684.02
2018-04-28T09:02:58.130Z,100687.17
2018-04-28T09:05:26.336Z,100684.52
2018-04-28T09:07:54.554Z,100689.36
2018-04-28T09:10:22.905Z,100696.93
2018-04-28T09:12:51.050Z,100693.22
2018-04-28T09:15:19.170Z,100698.84
2018-04-28T09:17:47.305Z,100701.02
2018-04-28T09:20:15.430Z,100695.92
2018-04-28T09:22:43.540Z,100698.13
2018-04-28T09:25:11.682Z,100696.33
2018-04-28T09:27:39.816Z,100698.19
2018-04-28T09:30:07.935Z,100700.36
2018-04-28T09:32:36.059Z,100697.78
2018-04-28T09:35:04.193Z,100699.05
2018-04-28T09:37:32.306Z,100705.92
2018-04-28T09:40:00.430Z,100701.83
2018-04-28T09:42:28.602Z,100708.51
2018-04-28T09:44:56.733Z,100705.03
2018-04-28T09:47:25.040Z,100707.77
2018-04-28T09:49:53.153Z,100711.28
2018-04-28T09:52:21.278Z,100706.83
2018-04-28T09:54:49.396Z,100711.14
2018-04-28T09:57:17.536Z,100713.48
2018-04-28T09:59:45.731Z,100707.48
2018-04-28T10:02:18.844Z,100708.09
2018-04-28T10:04:47.000Z,100715.67
2018-04-28T10:07:15.162Z,100709.83
2018-04-28T10:09:43.318Z,100712.19
2018-04-28T10:12:11.434Z,100714.84
2018-04-28T10:14:39.543Z,100713.12
2018-04-28T10:17:07.697Z,100719.67
2018-04-28T10:19:35.818Z,100719.45
2018-04-28T10:22:03.939Z,100719.34
2018-04-28T10:24:32.078Z,100720.85
2018-04-28T10:27:00.197Z,100723.72
2018-04-28T10:29:28.337Z,100733.77
2018-04-28T10:31:56.462Z,100722.06
2018-04-28T10:34:24.574Z,100724.61
2018-04-28T10:36:52.721Z,100721.89
2018-04-28T10:39:20.847Z,100727.87
2018-04-28T10:41:48.989Z,100731.19
2018-04-28T10:44:17.107Z,100725.04
2018-04-28T10:46:45.250Z,100729.83
2018-04-28T10:49:13.389Z,100729.19
2018-04-28T10:51:41.506Z,100726.30
2018-04-28T10:54:09.638Z,100725.63
2018-04-28T10:56:37.762Z,100728.42
2018-04-28T10:59:05.898Z,100728.95
2018-04-28T11:01:34.337Z,100734.67
2018-04-28T11:04:02.440Z,100734.41
2018-04-28T11:06:30.550Z,100726.36
2018-04-28T11:08:58.838Z,100726.00
2018-04-28T11:11:26.964Z,100727.80
2018-04-28T11:13:55.093Z,100734.14
2018-04-28T11:16:23.218Z,100732.97
2018-04-28T11:18:51.344Z,100726.87
2018-04-28T11:21:19.444Z,100728.66
2018-04-28T11:23:47.727Z,100736.34
2018-04-28T11:26:15.876Z,100733.84
2018-04-28T11:28:44.059Z,100728.27
2018-04-28T11:31:12.142Z,100724.13
2018-04-28T11:33:40.243Z,100728.01
2018-04-28T11:36:08.385Z,100709.19
2018-04-28T11:38:36.500Z,100717.89
2018-04-28T11:41:04.640Z,100711.53
2018-04-28T11:43:32.778Z,100704.92
2018-04-28T11:46:00.920Z,100705.48
2018-04-28T11:48:29.046Z,100703.42
2018-04-28T11:50:57.180Z,100706.28
2018-04-28T11:53:25.318Z,100708.20
2018-04-28T11:55:53.438Z,100709.91
2018-04-28T11:58:21.548Z,100707.30
2018-04-28T12:00:49.693Z,100704.57
2018-04-28T12:03:17.826Z,100701.20
2018-04-28T12:05:45.945Z,100702.00
2018-04-28T12:08:14.066Z,100704.16
2018-04-28T12:10:42.172Z,100707.72
2018-04-28T12:13:10.284Z,100710.56
2018-04-28T12:15:38.407Z,100706.52
2018-04-28T12:18:06.534Z,100706.65
2018-04-28T12:20:34.672Z,100705.55
2018-04-28T12:23:02.815Z,100705.69
2018-04-28T12:25:30.930Z,100715.49
2018-04-28T12:27:59.071Z,100711.25
2018-04-28T12:30:27.221Z,100712.90
2018-04-28T12:32:55.359Z,100716.58
2018-04-28T12:35:23.590Z,100713.46
2018-04-28T12:37:51.739Z,100715.63
2018-04-28T12:40:20.018Z,100719.20
2018-04-28T12:42:48.153Z,100716.38
2018-04-28T12:45:16.289Z,100715.12
2018-04-28T12:47:44.425Z,100709.81
2018-04-28T12:50:12.557Z,100703.52
2018-04-28T12:52:40.703Z,100703.50
2018-04-28T12:55:08.804Z,100703.78
2018-04-28T12:57:36.964Z,100705.37
2018-04-28T13:00:05.096Z,100699.57
2018-04-28T13:02:33.234Z,100706.66
2018-04-28T13:05:01.359Z,100703.39
2018-04-28T13:07:29.471Z,100708.97
2018-04-28T13:09:57.582Z,100711.87
2018-04-28T13:12:25.715Z,100711.87
2018-04-28T13:14:53.858Z,100714.59
2018-04-28T13:17:22.024Z,100710.51
2018-04-28T13:19:50.116Z,100710.37
2018-04-28T13:22:18.254Z,100713.66
2018-04-28T13:24:46.378Z,100715.26
2018-04-28T13:27:14.517Z,100720.14
2018-04-28T13:29:42.822Z,100708.73
2018-04-28T13:32:10.944Z,100717.41
2018-04-28T13:34:39.070Z,100702.83
2018-04-28T13:37:07.206Z,100709.56
2018-04-28T13:39:35.335Z,100710.59
2018-04-28T13:42:03.473Z,100698.73
2018-04-28T13:47:34.332Z,100707.64
2018-04-28T13:50:04.350Z,100694.94
2018-04-28T13:52:32.499Z,100692.81
2018-04-28T13:55:00.642Z,100694.31
2018-04-28T13:57:28.792Z,100694.00
2018-04-28T13:59:57.933Z,100683.31
2018-04-28T14:02:26.075Z,100688.83
2018-04-28T14:04:57.211Z,100684.45
2018-04-28T14:07:25.372Z,100685.27
2018-04-28T14:10:00.726Z,100684.84
2018-04-28T14:12:30.784Z,100685.95
2018-04-28T14:15:13.170Z,100684.87
2018-04-28T14:17:42.190Z,100682.53
2018-04-28T14:20:16.193Z,100684.05
2018-04-28T14:22:44.299Z,100672.90
2018-04-28T14:25:14.349Z,100671.41
2018-04-28T14:27:42.485Z,100670.52
2018-04-28T14:30:22.237Z,100668.63
2018-04-28T14:32:50.371Z,100664.46
2018-04-28T14:35:30.832Z,100666.77
2018-04-28T14:37:58.962Z,100662.49
2018-04-28T14:40:29.028Z,100664.33
2018-04-28T14:43:00.484Z,100660.30
2018-04-28T14:45:29.556Z,100660.75
2018-04-28T14:47:57.676Z,100657.34
2018-04-28T14:50:29.524Z,100669.22
2018-04-28T14:53:01.250Z,100664.95
2018-04-28T14:55:29.363Z,100668.13
2018-04-28T14:57:57.494Z,100667.19
2018-04-28T15:00:31.303Z,100672.21
2018-04-28T15:03:00.389Z,100673.45
2018-04-28T15:05:29.437Z,100670.73
2018-04-28T15:07:57.537Z,100669.52
2018-04-28T15:10:30.164Z,100671.96
2018-04-28T15:13:02.435Z,100673.74
2018-04-28T15:15:34.386Z,100670.44
2018-04-28T15:18:15.611Z,100673.61
2018-04-28T15:20:47.222Z,100669.79
2018-04-28T15:23:34.306Z,100669.65
2018-04-28T15:26:02.429Z,100666.50
2018-04-28T15:28:34.555Z,100664.63
2018-04-28T15:31:03.522Z,100661.34
2018-04-28T15:33:31.657Z,100668.16
2018-04-28T15:36:03.798Z,100670.47
2018-04-28T15:38:31.932Z,100663.27
2018-04-28T15:41:00.069Z,100674.16
2018-04-28T15:43:28.217Z,100674.69
2018-04-28T15:46:00.400Z,100676.61
2018-04-28T15:48:41.531Z,100680.83
2018-04-28T15:51:09.662Z,100682.86
2018-04-28T15:53:46.349Z,100677.55
2018-04-28T15:56:14.507Z,100674.02
2018-04-28T15:58:42.635Z,100671.96
2018-04-28T16:01:10.764Z,100674.69
2018-04-28T16:03:42.330Z,100676.89
2018-04-28T16:06:23.512Z,100671.82
2018-04-28T16:08:53.532Z,100669.50
2018-04-28T16:11:21.660Z,100673.86
2018-04-28T16:13:58.228Z,100668.00
2018-04-28T16:16:26.354Z,100665.28
2018-04-28T16:19:05.548Z,100669.07
2018-04-28T16:21:33.684Z,100668.94
2018-04-28T16:24:08.841Z,100671.27
2018-04-28T16:26:36.983Z,100671.66
2018-04-28T16:29:08.672Z,100675.45
2018-04-28T16:31:36.792Z,100676.02
2018-04-28T16:34:04.920Z,100673.44
2018-04-28T16:36:33.050Z,100674.09
2018-04-28T16:39:01.172Z,100669.20
2018-04-28T16:41:29.283Z,100673.57
2018-04-28T16:43:57.402Z,100670.58
2018-04-28T16:46:25.542Z,100664.46
2018-04-28T16:48:53.673Z,100659.54
2018-04-28T16:51:21.812Z,100659.02
2018-04-28T16:53:53.161Z,100659.82
2018-04-28T16:56:21.320Z,100656.54
2018-04-28T16:58:49.460Z,100660.63
2018-04-28T17:01:17.585Z,100654.80
2018-04-28T17:03:45.724Z,100653.43
2018-04-28T17:06:13.842Z,100656.95
2018-04-28T17:08:41.979Z,100651.66
2018-04-28T17:11:10.080Z,100643.20
2018-04-28T17:13:38.209Z,100650.70
2018-04-28T17:16:06.361Z,100654.80
2018-04-28T17:18:34.486Z,100646.20
2018-04-28T17:21:02.637Z,100652.88
2018-04-28T17:23:30.773Z,100650.16
2018-04-28T17:25:58.939Z,100641.84
2018-04-28T17:28:27.072Z,100647.55
2018-04-28T17:30:55.228Z,100644.41
2018-04-28T17:33:23.364Z,100639.40
2018-04-28T17:35:51.469Z,100644.28
2018-04-28T17:38:19.607Z,100643.34
2018-04-28T17:40:47.707Z,100639.27
2018-04-28T17:43:15.834Z,100643.06
2018-04-28T17:45:43.980Z,100640.89
2018-04-28T17:48:12.094Z,100635.98
2018-04-28T17:50:40.227Z,100646.06
2018-04-28T17:53:08.354Z,100644.80
2018-04-28T17:55:36.490Z,100652.38
2018-04-28T17:58:04.595Z,100658.34
2018-04-28T18:00:32.724Z,100650.37
2018-04-28T18:03:00.851Z,100652.53
2018-04-28T18:05:28.994Z,100645.72
2018-04-28T18:07:57.122Z,100647.22
2018-04-28T18:10:25.270Z,100648.17
2018-04-28T18:12:53.397Z,100646.80
2018-04-28T18:15:21.544Z,100643.58
2018-04-28T18:17:49.684Z,100646.98
2018-04-28T18:20:21.206Z,100644.11
2018-04-28T18:22:51.339Z,100650.66
2018-04-28T18:25:20.367Z,100657.67
2018-04-28T18:27:51.521Z,100648.85
2018-04-28T18:30:20.581Z,100654.84
2018-04-28T18:32:52.956Z,100661.53
2018-04-28T18:35:22.165Z,100659.88
2018-04-28T18:37:53.633Z,100661.64
2018-04-28T18:40:28.077Z,100667.50
2018-04-28T18:42:59.381Z,100667.23
2018-04-28T18:45:27.509Z,100664.13
2018-04-28T18:47:55.704Z,100661.55
2018-04-28T18:50:23.905Z,100667.47
2018-04-28T18:52:52.053Z,100684.07
2018-04-28T18:55:23.674Z,100683.51
2018-04-28T18:57:52.688Z,100687.85
2018-04-28T19:00:24.383Z,100693.70
2018-04-28T19:02:56.120Z,100697.07
2018-04-28T19:05:24.247Z,100699.13
2018-04-28T19:07:52.386Z,100705.08
2018-04-28T19:10:21.450Z,100699.33
2018-04-28T19:12:57.542Z,100701.84
2018-04-28T19:15:27.570Z,100703.65
2018-04-28T19:17:57.605Z,100700.25
2018-04-28T19:20:25.746Z,100702.44
2018-04-28T19:22:53.863Z,100707.35
2018-04-28T19:25:22.887Z,100703.94
2018-04-28T19:27:53.965Z,100710.41
2018-04-28T19:30:22.076Z,100714.13
2018-04-28T19:32:50.184Z,100710.84
2018-04-28T19:35:28.896Z,100712.56
2018-04-28T19:37:57.049Z,100712.42
2018-04-28T19:40:31.306Z,100710.88
2018-04-28T19:42:59.491Z,100722.30
2018-04-28T19:45:31.228Z,100722.88
2018-04-28T19:47:59.411Z,100726.99
2018-04-28T19:50:27.519Z,100729.24
2018-04-28T19:52:55.642Z,100731.14
2018-04-28T19:55:23.790Z,100725.45
2018-04-28T19:57:51.931Z,100726.55
2018-04-28T20:00:20.028Z,100730.05
2018-04-28T20:02:48.177Z,100733.57
2018-04-28T20:05:16.284Z,100729.05
2018-04-28T20:07:44.410Z,100734.69
2018-04-28T20:10:14.443Z,100733.20
2018-04-28T20:12:42.559Z,100731.77
2018-04-28T20:15:10.701Z,100726.78
2018-04-28T20:17:40.752Z,100731.27
2018-04-28T20:20:08.866Z,100732.09
2018-04-28T20:22:48.919Z,100733.72
2018-04-28T20:25:22.431Z,100733.81
2018-04-28T20:27:50.544Z,100733.44
2018-04-28T20:30:22.382Z,100737.52
2018-04-28T20:32:50.515Z,100732.31
2018-04-28T20:35:24.764Z,100740.06
2018-04-28T20:37:53.840Z,100739.36
2018-04-28T20:40:22.871Z,100741.52
2018-04-28T20:42:57.620Z,100736.08
2018-04-28T20:45:34.386Z,100741.25
2018-04-28T20:48:02.514Z,100739.38
2018-04-28T20:50:30.615Z,100732.77
2018-04-28T20:52:58.760Z,100733.83
2018-04-28T20:55:34.216Z,100730.23
2018-04-28T20:58:02.335Z,100734.41
2018-04-28T21:00:30.454Z,100737.38
2018-04-28T21:03:00.515Z,100746.27
2018-04-28T21:05:28.649Z,100746.51
2018-04-28T21:07:56.928Z,100751.19
2018-04-28T21:10:25.047Z,100742.08
2018-04-28T21:12:53.193Z,100746.58
2018-04-28T21:15:21.313Z,100745.31
2018-04-28T21:17:49.454Z,100747.36
2018-04-28T21:20:17.570Z,100741.25
2018-04-28T21:22:45.712Z,100748.61
2018-04-28T21:25:13.820Z,100752.41
2018-04-28T21:27:42.142Z,100743.55
2018-04-28T21:30:10.297Z,100747.48
2018-04-28T21:32:39.562Z,100746.88
2018-04-28T21:35:07.747Z,100750.91
2018-04-28T21:37:56.003Z,100744.98
2018-04-28T21:40:24.153Z,100752.16
2018-04-28T21:42:52.296Z,100755.42
2018-04-28T21:45:23.560Z,100755.92
2018-04-28T21:47:59.009Z,100745.64
2018-04-28T21:50:44.339Z,100746.17
2018-04-28T21:53:12.487Z,100744.91
2018-04-28T21:55:41.627Z,100739.23
2018-04-28T21:58:09.744Z,100741.08
2018-04-28T22:00:38.081Z,100743.75
2018-04-28T22:03:06.195Z,100740.41
2018-04-28T22:05:34.549Z,100735.47
2018-04-28T22:08:02.691Z,100738.11
2018-04-28T22:10:30.918Z,100733.67
2018-04-28T22:12:59.149Z,100741.38
2018-04-28T22:15:34.789Z,100733.72
2018-04-28T22:18:03.204Z,100737.09
2018-04-28T22:20:41.247Z,100741.19
2018-04-28T22:23:09.401Z,100736.81
2018-04-28T22:25:40.940Z,100736.60
2018-04-28T22:28:09.082Z,100738.09
2018-04-28T22:30:37.299Z,100734.91
2018-04-28T22:33:05.431Z,100740.02
2018-04-28T22:35:33.578Z,100739.77
2018-04-28T22:38:01.765Z,100743.53
2018-04-28T22:40:29.917Z,100740.63
2018-04-28T22:42:58.050Z,100746.23
2018-04-28T22:45:26.197Z,100748.19
2018-04-28T22:47:54.339Z,100751.12
2018-04-28T22:50:22.507Z,100743.98
2018-04-28T22:52:50.880Z,100744.75
2018-04-28T22:55:18.999Z,100742.88
2018-04-28T22:57:47.131Z,100745.65
2018-04-28T23:00:22.780Z,100744.72
2018-04-28T23:02:58.545Z,100741.84
2018-04-28T23:05:36.458Z,100743.84
2018-04-28T23:08:04.611Z,100738.02
2018-04-28T23:10:32.804Z,100733.75
2018-04-28T23:13:01.008Z,100735.13
2018-04-28T23:15:29.159Z,100735.56
2018-04-28T23:17:57.272Z,100726.69
2018-04-28T23:20:32.264Z,100726.53
2018-04-28T23:23:00.401Z,100733.43
2018-04-28T23:25:28.512Z,100727.72
2018-04-28T23:27:56.627Z,100731.23
2018-04-28T23:30:24.754Z,100731.88
2018-04-28T23:32:52.890Z,100733.79
2018-04-28T23:35:21.023Z,100733.40
2018-04-28T23:37:49.135Z,100741.39
2018-04-28T23:40:18.204Z,100746.32
2018-04-28T23:42:46.340Z,100754.25
2018-04-28T23:45:14.458Z,100751.81
2018-04-28T23:47:42.560Z,100749.80
2018-04-28T23:50:10.822Z,100749.59
2018-04-28T23:52:51.572Z,100747.41
2018-04-28T23:55:19.736Z,100740.97
2018-04-28T23:57:47.844Z,100736.61
